sensor_id;sensor_type;location;lat;lon;timestamp;pressure;altitude;pressure_sealevel;temperature;humidity
20424;BME280;10371;49.042;8.002;2023-07-31T00:00:01;99884.13;;;16.79;88.05
20424;BME280;10371;49.042;8.002;2023-07-31T00:01:01;99878.72;;;16.80;88.03
20424;BME280;10371;49.042;8.002;2023-07-31T00:02:01;99876.09;;;16.80;87.49
20424;BME280;10371;49.042;8.002;2023-07-31T00:03:02;99879.38;;;16.82;87.06
20424;BME280;10371;49.042;8.002;2023-07-31T00:04:02;99877.72;;;16.81;87.14
20424;BME280;10371;49.042;8.002;2023-07-31T00:05:03;99876.09;;;16.80;87.33
20424;BME280;10371;49.042;8.002;2023-07-31T00:06:03;99871.97;;;16.78;87.56
20424;BME280;10371;49.042;8.002;2023-07-31T00:07:04;99880.50;;;16.80;88.00
20424;BME280;10371;49.042;8.002;2023-07-31T00:08:06;99872.81;;;16.78;88.31
20424;BME280;10371;49.042;8.002;2023-07-31T00:09:06;99871.16;;;16.77;88.50
20424;BME280;10371;49.042;8.002;2023-07-31T00:10:07;99866.84;;;16.76;88.59
20424;BME280;10371;49.042;8.002;2023-07-31T00:11:07;99870.31;;;16.77;88.58
20424;BME280;10371;49.042;8.002;2023-07-31T00:12:08;99865.06;;;16.77;88.71
20424;BME280;10371;49.042;8.002;2023-07-31T00:13:08;99867.03;;;16.74;88.33
20424;BME280;10371;49.042;8.002;2023-07-31T00:14:08;99863.41;;;16.75;87.38
20424;BME280;10371;49.042;8.002;2023-07-31T00:15:09;99866.72;;;16.78;86.74
20424;BME280;10371;49.042;8.002;2023-07-31T00:16:09;99860.31;;;16.80;86.42
20424;BME280;10371;49.042;8.002;2023-07-31T00:17:10;99858.31;;;16.82;86.37
20424;BME280;10371;49.042;8.002;2023-07-31T00:18:10;99862.28;;;16.86;86.07
20424;BME280;10371;49.042;8.002;2023-07-31T00:19:10;99855.88;;;16.89;85.51
20424;BME280;10371;49.042;8.002;2023-07-31T00:20:11;99859.66;;;16.94;84.98
20424;BME280;10371;49.042;8.002;2023-07-31T00:21:11;99864.59;;;16.97;84.79
20424;BME280;10371;49.042;8.002;2023-07-31T00:22:12;99867.03;;;16.99;84.59
20424;BME280;10371;49.042;8.002;2023-07-31T00:23:12;99864.13;;;17.02;84.57
20424;BME280;10371;49.042;8.002;2023-07-31T00:24:12;99863.59;;;17.07;84.51
20424;BME280;10371;49.042;8.002;2023-07-31T00:25:13;99861.97;;;17.06;84.36
20424;BME280;10371;49.042;8.002;2023-07-31T00:26:13;99857.03;;;17.11;83.75
20424;BME280;10371;49.042;8.002;2023-07-31T00:27:13;99858.69;;;17.12;83.85
20424;BME280;10371;49.042;8.002;2023-07-31T00:28:13;99860.97;;;17.15;83.55
20424;BME280;10371;49.042;8.002;2023-07-31T00:29:14;99854.06;;;17.14;83.65
20424;BME280;10371;49.042;8.002;2023-07-31T00:30:14;99852.94;;;17.16;83.45
20424;BME280;10371;49.042;8.002;2023-07-31T00:31:14;99847.66;;;17.16;83.60
20424;BME280;10371;49.042;8.002;2023-07-31T00:32:15;99850.13;;;17.18;83.55
20424;BME280;10371;49.042;8.002;2023-07-31T00:33:15;99849.16;;;17.19;83.40
20424;BME280;10371;49.042;8.002;2023-07-31T00:34:15;99854.22;;;17.20;83.59
20424;BME280;10371;49.042;8.002;2023-07-31T00:35:16;99853.41;;;17.20;83.61
20424;BME280;10371;49.042;8.002;2023-07-31T00:36:16;99848.97;;;17.20;83.67
20424;BME280;10371;49.042;8.002;2023-07-31T00:37:18;99850.78;;;17.20;83.67
20424;BME280;10371;49.042;8.002;2023-07-31T00:38:18;99842.06;;;17.19;83.69
20424;BME280;10371;49.042;8.002;2023-07-31T00:39:18;99846.66;;;17.17;83.88
20424;BME280;10371;49.042;8.002;2023-07-31T00:40:18;99850.13;;;17.18;84.07
20424;BME280;10371;49.042;8.002;2023-07-31T00:41:19;99843.88;;;17.19;83.90
20424;BME280;10371;49.042;8.002;2023-07-31T00:42:19;99840.59;;;17.17;84.16
20424;BME280;10371;49.042;8.002;2023-07-31T00:43:19;99837.28;;;17.15;84.20
20424;BME280;10371;49.042;8.002;2023-07-31T00:44:19;99850.44;;;17.15;84.67
20424;BME280;10371;49.042;8.002;2023-07-31T00:45:21;99841.41;;;17.09;85.14
20424;BME280;10371;49.042;8.002;2023-07-31T00:46:23;99838.97;;;17.08;85.70
20424;BME280;10371;49.042;8.002;2023-07-31T00:47:23;99838.28;;;17.06;85.94
20424;BME280;10371;49.042;8.002;2023-07-31T00:48:23;99844.38;;;17.06;85.86
20424;BME280;10371;49.042;8.002;2023-07-31T00:49:24;99841.06;;;17.04;86.34
20424;BME280;10371;49.042;8.002;2023-07-31T00:50:25;99839.59;;;17.02;86.33
20424;BME280;10371;49.042;8.002;2023-07-31T00:51:25;99842.56;;;16.98;86.24
20424;BME280;10371;49.042;8.002;2023-07-31T00:52:25;99839.25;;;16.96;86.24
20424;BME280;10371;49.042;8.002;2023-07-31T00:53:25;99850.78;;;16.95;86.46
20424;BME280;10371;49.042;8.002;2023-07-31T00:54:26;99840.75;;;16.91;86.71
20424;BME280;10371;49.042;8.002;2023-07-31T00:55:26;99839.94;;;16.90;86.63
20424;BME280;10371;49.042;8.002;2023-07-31T00:56:27;99841.91;;;16.88;86.69
20424;BME280;10371;49.042;8.002;2023-07-31T00:57:28;99836.97;;;16.85;87.13
20424;BME280;10371;49.042;8.002;2023-07-31T00:58:30;99845.19;;;16.82;87.30
20424;BME280;10371;49.042;8.002;2023-07-31T00:59:30;99833.38;;;16.78;87.80
20424;BME280;10371;49.042;8.002;2023-07-31T01:00:30;99833.00;;;16.73;88.18
20424;BME280;10371;49.042;8.002;2023-07-31T01:01:31;99834.63;;;16.74;88.29
20424;BME280;10371;49.042;8.002;2023-07-31T01:02:31;99833.66;;;16.75;88.41
20424;BME280;10371;49.042;8.002;2023-07-31T01:03:31;99837.91;;;16.76;88.53
20424;BME280;10371;49.042;8.002;2023-07-31T01:04:32;99843.50;;;16.73;88.67
20424;BME280;10371;49.042;8.002;2023-07-31T01:06:05;99834.31;;;16.69;88.98
20424;BME280;10371;49.042;8.002;2023-07-31T01:07:27;99834.63;;;16.66;88.84
20424;BME280;10371;49.042;8.002;2023-07-31T01:08:57;99836.94;;;16.61;89.05
20424;BME280;10371;49.042;8.002;2023-07-31T01:10:13;99834.31;;;16.61;89.41
20424;BME280;10371;49.042;8.002;2023-07-31T01:11:19;99832.66;;;16.60;89.71
20424;BME280;10371;49.042;8.002;2023-07-31T01:12:20;99826.75;;;16.58;89.72
20424;BME280;10371;49.042;8.002;2023-07-31T01:13:21;99829.88;;;16.61;89.79
20424;BME280;10371;49.042;8.002;2023-07-31T01:14:21;99831.50;;;16.62;89.52
20424;BME280;10371;49.042;8.002;2023-07-31T01:15:21;99835.78;;;16.63;89.48
20424;BME280;10371;49.042;8.002;2023-07-31T01:16:22;99825.28;;;16.63;89.00
20424;BME280;10371;49.042;8.002;2023-07-31T01:17:22;99828.88;;;16.62;88.90
20424;BME280;10371;49.042;8.002;2023-07-31T01:18:22;99828.72;;;16.64;88.99
20424;BME280;10371;49.042;8.002;2023-07-31T01:19:24;99826.72;;;16.66;88.97
20424;BME280;10371;49.042;8.002;2023-07-31T01:20:26;99829.53;;;16.64;88.87
20424;BME280;10371;49.042;8.002;2023-07-31T01:25:47;99829.69;;;16.54;89.44
20424;BME280;10371;49.042;8.002;2023-07-31T01:26:53;99826.09;;;16.56;89.39
20424;BME280;10371;49.042;8.002;2023-07-31T01:28:03;99833.97;;;16.56;89.35
20424;BME280;10371;49.042;8.002;2023-07-31T01:29:15;99827.22;;;16.53;89.38
20424;BME280;10371;49.042;8.002;2023-07-31T01:30:22;99835.25;;;16.51;89.40
20424;BME280;10371;49.042;8.002;2023-07-31T01:31:25;99836.25;;;16.50;89.65
20424;BME280;10371;49.042;8.002;2023-07-31T01:32:28;99824.25;;;16.48;89.93
20424;BME280;10371;49.042;8.002;2023-07-31T01:33:29;99827.88;;;16.47;89.70
20424;BME280;10371;49.042;8.002;2023-07-31T01:34:31;99823.75;;;16.44;89.76
20424;BME280;10371;49.042;8.002;2023-07-31T01:35:36;99822.09;;;16.43;89.60
20424;BME280;10371;49.042;8.002;2023-07-31T01:36:37;99815.22;;;16.42;89.37
20424;BME280;10371;49.042;8.002;2023-07-31T01:37:37;99816.22;;;16.41;89.08
20424;BME280;10371;49.042;8.002;2023-07-31T01:38:37;99819.97;;;16.39;89.39
20424;BME280;10371;49.042;8.002;2023-07-31T01:39:37;99820.47;;;16.42;89.21
20424;BME280;10371;49.042;8.002;2023-07-31T01:40:41;99812.72;;;16.41;89.62
20424;BME280;10371;49.042;8.002;2023-07-31T01:41:41;99809.47;;;16.39;89.71
20424;BME280;10371;49.042;8.002;2023-07-31T01:42:41;99807.97;;;16.36;90.00
20424;BME280;10371;49.042;8.002;2023-07-31T01:43:42;99810.75;;;16.35;90.12
20424;BME280;10371;49.042;8.002;2023-07-31T01:44:42;99801.25;;;16.34;90.30
20424;BME280;10371;49.042;8.002;2023-07-31T01:45:42;99798.75;;;16.32;90.32
20424;BME280;10371;49.042;8.002;2023-07-31T01:46:42;99799.59;;;16.33;90.42
20424;BME280;10371;49.042;8.002;2023-07-31T01:47:43;99797.94;;;16.31;90.28
20424;BME280;10371;49.042;8.002;2023-07-31T01:48:43;99790.06;;;16.31;90.35
20424;BME280;10371;49.042;8.002;2023-07-31T01:49:43;99798.75;;;16.32;90.19
20424;BME280;10371;49.042;8.002;2023-07-31T01:50:44;99791.56;;;16.34;90.43
20424;BME280;10371;49.042;8.002;2023-07-31T01:51:44;99793.19;;;16.35;90.26
20424;BME280;10371;49.042;8.002;2023-07-31T01:52:44;99787.94;;;16.35;90.32
20424;BME280;10371;49.042;8.002;2023-07-31T01:53:44;99792.22;;;16.36;90.14
20424;BME280;10371;49.042;8.002;2023-07-31T01:54:45;99785.16;;;16.37;90.04
20424;BME280;10371;49.042;8.002;2023-07-31T01:55:45;99777.41;;;16.35;90.03
20424;BME280;10371;49.042;8.002;2023-07-31T01:56:45;99790.41;;;16.37;90.00
20424;BME280;10371;49.042;8.002;2023-07-31T01:57:45;99784.34;;;16.36;89.74
20424;BME280;10371;49.042;8.002;2023-07-31T01:58:46;99787.78;;;16.37;89.68
20424;BME280;10371;49.042;8.002;2023-07-31T01:59:46;99786.78;;;16.38;89.76
20424;BME280;10371;49.042;8.002;2023-07-31T02:00:46;99787.63;;;16.38;90.00
20424;BME280;10371;49.042;8.002;2023-07-31T02:01:46;99788.59;;;16.37;89.79
20424;BME280;10371;49.042;8.002;2023-07-31T02:02:47;99790.91;;;16.40;89.76
20424;BME280;10371;49.042;8.002;2023-07-31T02:03:47;99788.94;;;16.42;89.77
20424;BME280;10371;49.042;8.002;2023-07-31T02:04:47;99785.31;;;16.43;89.40
20424;BME280;10371;49.042;8.002;2023-07-31T02:05:48;99788.59;;;16.45;89.28
20424;BME280;10371;49.042;8.002;2023-07-31T02:06:49;99786.97;;;16.44;89.34
20424;BME280;10371;49.042;8.002;2023-07-31T02:07:49;99789.75;;;16.43;89.72
20424;BME280;10371;49.042;8.002;2023-07-31T02:08:50;99792.22;;;16.44;89.61
20424;BME280;10371;49.042;8.002;2023-07-31T02:09:50;99793.06;;;16.45;89.58
20424;BME280;10371;49.042;8.002;2023-07-31T02:10:51;99785.97;;;16.45;89.83
20424;BME280;10371;49.042;8.002;2023-07-31T02:11:51;99791.25;;;16.45;89.90
20424;BME280;10371;49.042;8.002;2023-07-31T02:12:52;99786.97;;;16.44;90.38
20424;BME280;10371;49.042;8.002;2023-07-31T02:13:52;99781.72;;;16.44;90.63
20424;BME280;10371;49.042;8.002;2023-07-31T02:14:52;99778.91;;;16.46;90.57
20424;BME280;10371;49.042;8.002;2023-07-31T02:15:53;99780.25;;;16.42;90.37
20424;BME280;10371;49.042;8.002;2023-07-31T02:16:53;99783.53;;;16.44;90.08
20424;BME280;10371;49.042;8.002;2023-07-31T02:17:54;99785.31;;;16.43;89.89
20424;BME280;10371;49.042;8.002;2023-07-31T02:18:54;99779.09;;;16.44;89.88
20424;BME280;10371;49.042;8.002;2023-07-31T02:19:54;99780.91;;;16.44;89.83
20424;BME280;10371;49.042;8.002;2023-07-31T02:20:54;99780.06;;;16.43;89.70
20424;BME280;10371;49.042;8.002;2023-07-31T02:21:55;99782.06;;;16.41;89.79
20424;BME280;10371;49.042;8.002;2023-07-31T02:22:55;99784.81;;;16.40;90.16
20424;BME280;10371;49.042;8.002;2023-07-31T02:23:55;99782.19;;;16.40;90.15
20424;BME280;10371;49.042;8.002;2023-07-31T02:24:55;99783.19;;;16.39;90.59
20424;BME280;10371;49.042;8.002;2023-07-31T02:25:56;99778.91;;;16.38;90.78
20424;BME280;10371;49.042;8.002;2023-07-31T02:26:56;99779.91;;;16.37;90.93
20424;BME280;10371;49.042;8.002;2023-07-31T02:27:56;99781.72;;;16.36;91.22
20424;BME280;10371;49.042;8.002;2023-07-31T02:28:56;99776.59;;;16.35;90.94
20424;BME280;10371;49.042;8.002;2023-07-31T02:29:57;99778.41;;;16.34;90.99
20424;BME280;10371;49.042;8.002;2023-07-31T02:30:59;99778.25;;;16.36;91.35
20424;BME280;10371;49.042;8.002;2023-07-31T02:31:59;99772.34;;;16.34;91.36
20424;BME280;10371;49.042;8.002;2023-07-31T02:32:59;99781.84;;;16.35;91.15
20424;BME280;10371;49.042;8.002;2023-07-31T02:34:00;99771.69;;;16.31;91.13
20424;BME280;10371;49.042;8.002;2023-07-31T02:35:00;99768.72;;;16.35;91.10
20424;BME280;10371;49.042;8.002;2023-07-31T02:36:00;99766.91;;;16.35;91.20
20424;BME280;10371;49.042;8.002;2023-07-31T02:37:01;99770.19;;;16.37;91.26
20424;BME280;10371;49.042;8.002;2023-07-31T02:38:01;99768.56;;;16.36;91.05
20424;BME280;10371;49.042;8.002;2023-07-31T02:39:01;99763.31;;;16.36;91.26
20424;BME280;10371;49.042;8.002;2023-07-31T02:40:02;99768.72;;;16.35;90.96
20424;BME280;10371;49.042;8.002;2023-07-31T02:41:02;99766.91;;;16.35;91.07
20424;BME280;10371;49.042;8.002;2023-07-31T02:42:02;99767.09;;;16.34;90.82
20424;BME280;10371;49.042;8.002;2023-07-31T02:43:03;99771.53;;;16.33;90.94
20424;BME280;10371;49.042;8.002;2023-07-31T02:44:03;99767.09;;;16.34;91.07
20424;BME280;10371;49.042;8.002;2023-07-31T02:45:04;99764.47;;;16.34;91.10
20424;BME280;10371;49.042;8.002;2023-07-31T02:46:04;99767.25;;;16.32;91.12
20424;BME280;10371;49.042;8.002;2023-07-31T02:47:05;99766.41;;;16.31;91.20
20424;BME280;10371;49.042;8.002;2023-07-31T02:48:05;99763.13;;;16.29;91.34
20424;BME280;10371;49.042;8.002;2023-07-31T02:49:05;99767.56;;;16.29;91.40
20424;BME280;10371;49.042;8.002;2023-07-31T02:50:06;99764.59;;;16.32;91.92
20424;BME280;10371;49.042;8.002;2023-07-31T02:51:06;99770.03;;;16.30;92.30
20424;BME280;10371;49.042;8.002;2023-07-31T02:52:07;99771.84;;;16.30;92.41
20424;BME280;10371;49.042;8.002;2023-07-31T02:53:07;99773.97;;;16.26;91.95
20424;BME280;10371;49.042;8.002;2023-07-31T02:54:07;99767.88;;;16.26;92.32
20424;BME280;10371;49.042;8.002;2023-07-31T02:55:07;99767.06;;;16.25;92.49
20424;BME280;10371;49.042;8.002;2023-07-31T02:56:08;99765.25;;;16.26;92.85
20424;BME280;10371;49.042;8.002;2023-07-31T02:57:08;99762.63;;;16.26;92.98
20424;BME280;10371;49.042;8.002;2023-07-31T02:58:08;99758.19;;;16.26;93.07
20424;BME280;10371;49.042;8.002;2023-07-31T02:59:08;99759.88;;;16.27;93.06
20424;BME280;10371;49.042;8.002;2023-07-31T03:00:09;99754.59;;;16.27;92.98
20424;BME280;10371;49.042;8.002;2023-07-31T03:01:09;99756.41;;;16.27;92.92
20424;BME280;10371;49.042;8.002;2023-07-31T03:02:09;99757.88;;;16.29;93.04
20424;BME280;10371;49.042;8.002;2023-07-31T03:03:10;99747.53;;;16.28;93.02
20424;BME280;10371;49.042;8.002;2023-07-31T03:04:11;99742.63;;;16.25;92.94
20424;BME280;10371;49.042;8.002;2023-07-31T03:05:11;99749.81;;;16.23;92.42
20424;BME280;10371;49.042;8.002;2023-07-31T03:06:12;99757.56;;;16.24;92.46
20424;BME280;10371;49.042;8.002;2023-07-31T03:07:12;99751.31;;;16.25;92.72
20424;BME280;10371;49.042;8.002;2023-07-31T03:08:12;99745.25;;;16.25;92.42
20424;BME280;10371;49.042;8.002;2023-07-31T03:09:12;99755.56;;;16.26;92.26
20424;BME280;10371;49.042;8.002;2023-07-31T03:10:13;99752.13;;;16.26;91.75
20424;BME280;10371;49.042;8.002;2023-07-31T03:11:13;99752.13;;;16.26;90.80
20424;BME280;10371;49.042;8.002;2023-07-31T03:12:13;99752.63;;;16.29;90.57
20424;BME280;10371;49.042;8.002;2023-07-31T03:13:14;99759.34;;;16.32;90.72
20424;BME280;10371;49.042;8.002;2023-07-31T03:14:14;99748.03;;;16.31;90.74
20424;BME280;10371;49.042;8.002;2023-07-31T03:15:14;99758.22;;;16.35;90.75
20424;BME280;10371;49.042;8.002;2023-07-31T03:16:14;99766.63;;;16.38;90.59
20424;BME280;10371;49.042;8.002;2023-07-31T03:17:15;99759.38;;;16.40;90.40
20424;BME280;10371;49.042;8.002;2023-07-31T03:18:15;99766.28;;;16.41;90.02
20424;BME280;10371;49.042;8.002;2023-07-31T03:19:15;99766.28;;;16.41;89.60
20424;BME280;10371;49.042;8.002;2023-07-31T03:20:16;99767.91;;;16.42;89.28
20424;BME280;10371;49.042;8.002;2023-07-31T03:21:16;99760.38;;;16.47;89.20
20424;BME280;10371;49.042;8.002;2023-07-31T03:22:16;99759.22;;;16.50;89.69
20424;BME280;10371;49.042;8.002;2023-07-31T03:23:17;99763.66;;;16.49;89.87
20424;BME280;10371;49.042;8.002;2023-07-31T03:24:17;99772.19;;;16.51;89.83
20424;BME280;10371;49.042;8.002;2023-07-31T03:25:17;99770.88;;;16.47;89.84
20424;BME280;10371;49.042;8.002;2023-07-31T03:26:17;99769.88;;;16.48;90.06
20424;BME280;10371;49.042;8.002;2023-07-31T03:27:18;99767.59;;;16.45;90.17
20424;BME280;10371;49.042;8.002;2023-07-31T03:28:18;99763.31;;;16.44;89.82
20424;BME280;10371;49.042;8.002;2023-07-31T03:29:18;99760.03;;;16.42;89.58
20424;BME280;10371;49.042;8.002;2023-07-31T03:30:19;99764.63;;;16.40;89.28
20424;BME280;10371;49.042;8.002;2023-07-31T03:31:19;99765.97;;;16.44;89.31
20424;BME280;10371;49.042;8.002;2023-07-31T03:32:19;99761.84;;;16.42;89.31
20424;BME280;10371;49.042;8.002;2023-07-31T03:33:20;99760.03;;;16.42;89.50
20424;BME280;10371;49.042;8.002;2023-07-31T03:34:20;99757.41;;;16.42;89.71
20424;BME280;10371;49.042;8.002;2023-07-31T03:35:20;99762.50;;;16.44;89.81
20424;BME280;10371;49.042;8.002;2023-07-31T03:36:21;99761.66;;;16.43;89.79
20424;BME280;10371;49.042;8.002;2023-07-31T03:37:21;99757.06;;;16.45;89.82
20424;BME280;10371;49.042;8.002;2023-07-31T03:38:21;99764.16;;;16.45;89.66
20424;BME280;10371;49.042;8.002;2023-07-31T03:39:22;99768.41;;;16.46;89.73
20424;BME280;10371;49.042;8.002;2023-07-31T03:40:22;99772.03;;;16.45;89.70
20424;BME280;10371;49.042;8.002;2023-07-31T03:41:22;99765.28;;;16.42;89.80
20424;BME280;10371;49.042;8.002;2023-07-31T03:42:22;99765.97;;;16.44;89.78
20424;BME280;10371;49.042;8.002;2023-07-31T03:43:23;99761.66;;;16.43;89.67
20424;BME280;10371;49.042;8.002;2023-07-31T03:44:23;99762.50;;;16.44;89.44
20424;BME280;10371;49.042;8.002;2023-07-31T03:45:23;99759.88;;;16.44;89.51
20424;BME280;10371;49.042;8.002;2023-07-31T03:46:24;99759.88;;;16.44;89.38
20424;BME280;10371;49.042;8.002;2023-07-31T03:47:25;99759.69;;;16.45;89.68
20424;BME280;10371;49.042;8.002;2023-07-31T03:48:25;99768.25;;;16.47;89.38
20424;BME280;10371;49.042;8.002;2023-07-31T03:49:25;99767.44;;;16.47;89.23
20424;BME280;10371;49.042;8.002;2023-07-31T03:50:26;99762.00;;;16.48;89.34
20424;BME280;10371;49.042;8.002;2023-07-31T03:51:26;99765.63;;;16.47;89.21
20424;BME280;10371;49.042;8.002;2023-07-31T03:52:26;99762.00;;;16.48;89.21
20424;BME280;10371;49.042;8.002;2023-07-31T03:53:27;99754.94;;;16.49;88.84
20424;BME280;10371;49.042;8.002;2023-07-31T03:54:27;99763.66;;;16.49;88.81
20424;BME280;10371;49.042;8.002;2023-07-31T03:55:27;99765.63;;;16.47;88.75
20424;BME280;10371;49.042;8.002;2023-07-31T03:56:27;99763.00;;;16.47;88.54
20424;BME280;10371;49.042;8.002;2023-07-31T03:57:28;99759.56;;;16.47;88.98
20424;BME280;10371;49.042;8.002;2023-07-31T03:58:28;99759.69;;;16.45;89.15
20424;BME280;10371;49.042;8.002;2023-07-31T03:59:28;99763.97;;;16.46;89.22
20424;BME280;10371;49.042;8.002;2023-07-31T04:00:28;99758.41;;;16.49;89.14
20424;BME280;10371;49.042;8.002;2023-07-31T04:01:29;99766.44;;;16.48;88.85
20424;BME280;10371;49.042;8.002;2023-07-31T04:02:29;99758.22;;;16.43;88.97
20424;BME280;10371;49.042;8.002;2023-07-31T04:03:30;99761.66;;;16.43;89.42
20424;BME280;10371;49.042;8.002;2023-07-31T04:04:30;99762.00;;;16.40;89.59
20424;BME280;10371;49.042;8.002;2023-07-31T04:05:32;99769.72;;;16.42;89.63
20424;BME280;10371;49.042;8.002;2023-07-31T04:06:33;99763.00;;;16.39;89.97
20424;BME280;10371;49.042;8.002;2023-07-31T04:07:33;99764.94;;;16.37;89.88
20424;BME280;10371;49.042;8.002;2023-07-31T04:08:33;99760.03;;;16.34;89.75
20424;BME280;10371;49.042;8.002;2023-07-31T04:09:34;99770.19;;;16.37;89.84
20424;BME280;10371;49.042;8.002;2023-07-31T04:10:34;99765.28;;;16.34;90.13
20424;BME280;10371;49.042;8.002;2023-07-31T04:11:34;99763.31;;;16.36;90.38
20424;BME280;10371;49.042;8.002;2023-07-31T04:12:34;99766.75;;;16.37;90.35
20424;BME280;10371;49.042;8.002;2023-07-31T04:13:35;99769.25;;;16.38;90.36
20424;BME280;10371;49.042;8.002;2023-07-31T04:14:35;99766.75;;;16.37;90.15
20424;BME280;10371;49.042;8.002;2023-07-31T04:15:35;99766.09;;;16.35;90.10
20424;BME280;10371;49.042;8.002;2023-07-31T04:16:35;99764.47;;;16.34;90.26
20424;BME280;10371;49.042;8.002;2023-07-31T04:17:36;99766.91;;;16.35;90.39
20424;BME280;10371;49.042;8.002;2023-07-31T04:18:37;99761.66;;;16.35;90.40
20424;BME280;10371;49.042;8.002;2023-07-31T04:19:37;99762.66;;;16.34;90.58
20424;BME280;10371;49.042;8.002;2023-07-31T04:20:38;99756.41;;;16.35;90.26
20424;BME280;10371;49.042;8.002;2023-07-31T04:21:38;99766.63;;;16.38;90.07
20424;BME280;10371;49.042;8.002;2023-07-31T04:22:38;99762.66;;;16.34;90.16
20424;BME280;10371;49.042;8.002;2023-07-31T04:23:38;99763.66;;;16.33;90.31
20424;BME280;10371;49.042;8.002;2023-07-31T04:24:39;99757.41;;;16.34;90.65
20424;BME280;10371;49.042;8.002;2023-07-31T04:25:39;99756.41;;;16.35;90.55
20424;BME280;10371;49.042;8.002;2023-07-31T04:26:39;99753.63;;;16.37;90.43
20424;BME280;10371;49.042;8.002;2023-07-31T04:27:40;99759.03;;;16.35;90.16
20424;BME280;10371;49.042;8.002;2023-07-31T04:28:40;99753.78;;;16.35;90.48
20424;BME280;10371;49.042;8.002;2023-07-31T04:29:40;99752.00;;;16.36;90.49
20424;BME280;10371;49.042;8.002;2023-07-31T04:30:42;99752.97;;;16.35;90.78
20424;BME280;10371;49.042;8.002;2023-07-31T04:31:42;99755.44;;;16.36;91.01
20424;BME280;10371;49.042;8.002;2023-07-31T04:32:43;99756.91;;;16.39;90.96
20424;BME280;10371;49.042;8.002;2023-07-31T04:33:43;99756.09;;;16.38;91.00
20424;BME280;10371;49.042;8.002;2023-07-31T04:34:43;99753.16;;;16.41;90.89
20424;BME280;10371;49.042;8.002;2023-07-31T04:35:51;99754.09;;;16.40;90.92
20424;BME280;10371;49.042;8.002;2023-07-31T04:36:52;99751.47;;;16.40;91.48
20424;BME280;10371;49.042;8.002;2023-07-31T04:37:52;99751.47;;;16.40;91.38
20424;BME280;10371;49.042;8.002;2023-07-31T04:38:53;99751.34;;;16.42;91.35
20424;BME280;10371;49.042;8.002;2023-07-31T04:39:53;99751.16;;;16.43;91.36
20424;BME280;10371;49.042;8.002;2023-07-31T04:40:53;99747.56;;;16.44;90.98
20424;BME280;10371;49.042;8.002;2023-07-31T04:41:54;99757.41;;;16.42;90.40
20424;BME280;10371;49.042;8.002;2023-07-31T04:42:54;99749.84;;;16.47;90.10
20424;BME280;10371;49.042;8.002;2023-07-31T04:43:54;99751.00;;;16.45;90.28
20424;BME280;10371;49.042;8.002;2023-07-31T04:44:54;99747.38;;;16.46;90.34
20424;BME280;10371;49.042;8.002;2023-07-31T04:45:55;99755.13;;;16.47;90.30
20424;BME280;10371;49.042;8.002;2023-07-31T04:46:55;99749.84;;;16.47;90.17
20424;BME280;10371;49.042;8.002;2023-07-31T04:47:55;99758.72;;;16.46;90.12
20424;BME280;10371;49.042;8.002;2023-07-31T04:48:56;99760.84;;;16.51;90.19
20424;BME280;10371;49.042;8.002;2023-07-31T04:49:56;99751.16;;;16.51;90.10
20424;BME280;10371;49.042;8.002;2023-07-31T04:50:57;99747.06;;;16.57;89.99
20424;BME280;10371;49.042;8.002;2023-07-31T04:51:57;99743.28;;;16.60;89.71
20424;BME280;10371;49.042;8.002;2023-07-31T04:52:57;99745.41;;;16.64;89.89
20424;BME280;10371;49.042;8.002;2023-07-31T04:53:58;99743.28;;;16.68;89.53
20424;BME280;10371;49.042;8.002;2023-07-31T04:54:58;99750.69;;;16.72;89.32
20424;BME280;10371;49.042;8.002;2023-07-31T04:55:59;99741.00;;;16.81;88.88
20424;BME280;10371;49.042;8.002;2023-07-31T04:56:59;99739.19;;;16.90;88.23
20424;BME280;10371;49.042;8.002;2023-07-31T04:57:59;99741.66;;;17.00;87.41
20424;BME280;10371;49.042;8.002;2023-07-31T04:59:00;99747.53;;;17.02;87.43
20424;BME280;10371;49.042;8.002;2023-07-31T05:00:00;99740.16;;;17.05;87.37
20424;BME280;10371;49.042;8.002;2023-07-31T05:01:00;99743.94;;;17.11;87.20
20424;BME280;10371;49.042;8.002;2023-07-31T05:02:00;99747.50;;;17.18;87.17
20424;BME280;10371;49.042;8.002;2023-07-31T05:03:01;99740.09;;;17.22;86.96
20424;BME280;10371;49.042;8.002;2023-07-31T05:04:01;99738.59;;;17.27;86.28
20424;BME280;10371;49.042;8.002;2023-07-31T05:05:01;99735.94;;;17.35;86.13
20424;BME280;10371;49.042;8.002;2023-07-31T05:06:02;99742.84;;;17.45;85.95
20424;BME280;10371;49.042;8.002;2023-07-31T05:07:02;99739.69;;;17.49;85.83
20424;BME280;10371;49.042;8.002;2023-07-31T05:08:02;99739.84;;;17.56;85.23
20424;BME280;10371;49.042;8.002;2023-07-31T05:09:03;99748.03;;;17.61;85.02
20424;BME280;10371;49.042;8.002;2023-07-31T05:10:03;99734.69;;;17.62;84.71
20424;BME280;10371;49.042;8.002;2023-07-31T05:11:03;99726.94;;;17.69;84.68
20424;BME280;10371;49.042;8.002;2023-07-31T05:12:05;99734.31;;;17.74;84.58
20424;BME280;10371;49.042;8.002;2023-07-31T05:13:05;99730.50;;;17.76;84.46
20424;BME280;10371;49.042;8.002;2023-07-31T05:14:06;99728.56;;;17.78;84.39
20424;BME280;10371;49.042;8.002;2023-07-31T05:15:06;99724.25;;;17.77;83.66
20424;BME280;10371;49.042;8.002;2023-07-31T05:16:07;99729.38;;;17.79;83.20
20424;BME280;10371;49.042;8.002;2023-07-31T05:17:07;99726.41;;;17.82;82.94
20424;BME280;10371;49.042;8.002;2023-07-31T05:18:07;99732.31;;;17.84;83.08
20424;BME280;10371;49.042;8.002;2023-07-31T05:19:08;99727.53;;;17.88;83.06
20424;BME280;10371;49.042;8.002;2023-07-31T05:20:08;99735.72;;;17.93;83.08
20424;BME280;10371;49.042;8.002;2023-07-31T05:21:09;99731.69;;;18.05;82.68
20424;BME280;10371;49.042;8.002;2023-07-31T05:22:09;99733.16;;;18.07;82.44
20424;BME280;10371;49.042;8.002;2023-07-31T05:23:09;99730.16;;;18.11;82.61
20424;BME280;10371;49.042;8.002;2023-07-31T05:24:10;99725.19;;;18.16;82.67
20424;BME280;10371;49.042;8.002;2023-07-31T05:25:10;99734.41;;;18.20;82.62
20424;BME280;10371;49.042;8.002;2023-07-31T05:26:10;99729.44;;;18.25;82.66